Home PIREPS Pireps

Flight BEL382

  • Submitted By: Serge Morabito
  • Departure Airport: Flughafen Wien-Schwechat (LOWW)
  • Arrival Airport: Bruxelles National (EBBR)
  • Aircraft: A320-214 (OO-SNB)
  • Flight Time: 01.43
  • Date Submitted: 27/05/2017
  • Route: MEDIX DCT RENKA UL610 LOHRE T880 ADMUM/N0365F240 T880 ASDAK UT880 BATTY
  • Status: Accepted
Flight Details
Gross Revenue:
(138 load / € 0.00 per unit
€ 0.00
Fuel Cost:
(3209 fuel used @ 0 / unit)
€ 0.00

Additional Log Information:

View Log

Aircraft Used in flight is A320 neo (v3.1r1) Brussels Airlines
16:09 Brakes are On
16:12 Brakes are Released
16:20 Brakes are On
16:20 Brakes are Released
16:23 You Took off @ 152 Knots and Flaps at Position 3
Departure Weather
LOWW 271350Z 02010KT 350V050 CAVOK 23/10 Q1021 NOSIGrn
16:24 Landing Gear Up @ 159 Knots and 640 Feet
16:24 You exceeded maximum bank angle
16:26 Below 10000 feet you are not allowed to go over 250 knots
16:27 Above FL100 you need to switch of the landing lights
17:39 Landing Gear Down @ 159 Knots and 2410 Feet
17:42 You Landed @ 129 Knots and with -500 Vertical Speed
Arrival Weather
EBBR 271520Z 22007KT CAVOK 29/15 Q1015 NOSIGrn
17:42 Brakes are On
17:42 Brakes are Released
17:42 Brakes are On
17:42 Brakes are Released
17:42 Brakes are On
17:42 Brakes are Released
17:42 Brakes are On
17:42 Brakes are Released
17:43 Brakes are On
17:43 Brakes are Released
17:43 Brakes are On
17:43 Brakes are Released
17:43 Brakes are On
17:43 Brakes are Released
17:43 Brakes are On
17:43 Brakes are Released
17:43 Brakes are On
17:43 Brakes are Released
17:43 Brakes are On
17:43 Brakes are Released
17:43 Brakes are On
17:43 Brakes are Released
17:43 Brakes are On
17:43 Brakes are Released
17:44 Brakes are On
17:44 Brakes are Released
17:44 Brakes are On
17:44 Brakes are Released
17:44 Brakes are On
17:44 Brakes are Released
17:44 Brakes are On
17:45 Brakes are Released
17:51 Brakes are On
17:52 Brussels Bel-Track1.0.1.2

Route Map

Corporate About Us Our Team Vacancies Information Fleet Route Network Rules and Regulations Operations Flight Schedules Event Center Tours Partners IVAO Vatsim Acars dev FSCB

fb Users Online Belgium John Smits,
1 Pilot(s) and 102 Guest(s) Online
CMS by phpVMS - Design by Crazycreatives.com - Copyright © 2019 - Brussels Airlines Virtual